createdAt,value
2023-04-11T00:00:37.220Z,2.78
2023-04-11T00:03:25.491Z,2.50
2023-04-11T00:06:13.201Z,2.90
2023-04-11T00:09:01.343Z,2.58
2023-04-11T00:11:48.631Z,2.95
2023-04-11T00:14:35.692Z,2.78
2023-04-11T00:17:24.878Z,2.80
2023-04-11T00:20:13.192Z,2.67
2023-04-11T00:23:00.124Z,2.50
2023-04-11T00:25:46.968Z,2.42
2023-04-11T00:28:34.318Z,2.55
2023-04-11T00:31:21.724Z,2.08
2023-04-11T00:34:10.100Z,2.10
2023-04-11T00:36:57.255Z,2.35
2023-04-11T00:39:45.423Z,2.00
2023-04-11T00:42:33.093Z,2.05
2023-04-11T00:45:20.110Z,2.20
2023-04-11T00:48:07.580Z,2.10
2023-04-11T00:50:57.145Z,2.10
2023-04-11T00:53:45.911Z,2.03
2023-04-11T00:56:32.942Z,2.10
2023-04-11T00:59:20.369Z,2.20
2023-04-11T01:02:08.270Z,2.10
2023-04-11T01:04:56.403Z,2.42
2023-04-11T01:07:48.252Z,1.90
2023-04-11T01:10:35.909Z,2.20
2023-04-11T01:13:23.223Z,1.95
2023-04-11T01:16:11.267Z,1.92
2023-04-11T01:18:58.830Z,1.98
2023-04-11T01:21:46.845Z,2.00
2023-04-11T01:24:35.770Z,2.38
2023-04-11T01:27:23.134Z,1.88
2023-04-11T01:30:12.730Z,2.45
2023-04-11T01:33:00.108Z,2.00
2023-04-11T01:35:47.886Z,2.78
2023-04-11T01:38:35.013Z,2.75
2023-04-11T01:41:24.714Z,2.75
2023-04-11T01:44:12.534Z,2.50
2023-04-11T01:46:59.839Z,2.50
2023-04-11T01:49:47.076Z,2.72
2023-04-11T01:52:34.336Z,2.10
2023-04-11T01:55:21.527Z,2.33
2023-04-11T01:58:10.223Z,2.03
2023-04-11T02:01:00.529Z,1.95
2023-04-11T02:03:47.706Z,2.03
2023-04-11T02:06:34.943Z,1.67
2023-04-11T02:09:22.080Z,1.60
2023-04-11T02:12:09.408Z,1.63
2023-04-11T02:14:58.224Z,1.52
2023-04-11T02:17:46.349Z,1.30
2023-04-11T02:20:33.538Z,1.38
2023-04-11T02:23:20.827Z,1.42
2023-04-11T02:26:07.895Z,1.17
2023-04-11T02:28:55.369Z,1.13
2023-04-11T02:31:44.115Z,1.38
2023-04-11T02:34:31.311Z,1.75
2023-04-11T02:37:18.310Z,1.20
2023-04-11T02:40:06.267Z,1.42
2023-04-11T02:42:53.395Z,1.85
2023-04-11T02:45:41.278Z,1.30
2023-04-11T02:48:30.453Z,1.35
2023-04-11T02:51:17.341Z,1.40
2023-04-11T02:54:05.279Z,1.30
2023-04-11T02:56:56.814Z,1.50
2023-04-11T02:59:43.983Z,1.50
2023-04-11T03:02:32.575Z,1.50
2023-04-11T03:05:22.400Z,1.23
2023-04-11T03:08:12.900Z,1.30
2023-04-11T03:11:07.827Z,1.30
2023-04-11T03:13:55.244Z,1.10
2023-04-11T03:16:42.316Z,1.10
2023-04-11T03:19:29.084Z,1.45
2023-04-11T03:22:19.145Z,1.23
2023-04-11T03:25:08.938Z,0.95
2023-04-11T03:27:57.315Z,0.95
2023-04-11T03:30:44.982Z,1.10
2023-04-11T03:33:34.364Z,1.33
2023-04-11T03:36:22.501Z,1.05
2023-04-11T03:39:11.432Z,1.23
2023-04-11T03:41:58.553Z,1.20
2023-04-11T03:44:46.954Z,1.10
2023-04-11T03:47:35.159Z,1.20
2023-04-11T03:50:23.471Z,1.10
2023-04-11T03:53:17.142Z,1.13
2023-04-11T03:56:08.481Z,1.20
2023-04-11T03:58:58.678Z,1.30
2023-04-11T04:01:50.501Z,1.20
2023-04-11T04:04:39.030Z,1.42
2023-04-11T04:07:39.803Z,1.20
2023-04-11T04:10:34.451Z,2.08
2023-04-11T04:13:23.122Z,1.10
2023-04-11T04:16:21.161Z,1.15
2023-04-11T04:19:13.811Z,1.08
2023-04-11T04:22:06.044Z,1.00
2023-04-11T04:24:58.422Z,1.08
2023-04-11T04:27:54.236Z,1.30
2023-04-11T04:30:54.526Z,1.02
2023-04-11T04:33:44.581Z,0.90
2023-04-11T04:36:47.861Z,1.10
2023-04-11T04:39:42.408Z,1.15
2023-04-11T04:42:34.635Z,1.27
2023-04-11T04:45:24.842Z,1.20
2023-04-11T04:48:14.576Z,1.05
2023-04-11T04:51:03.430Z,1.20
2023-04-11T04:53:51.250Z,1.20
2023-04-11T04:56:38.223Z,1.38
2023-04-11T04:59:26.348Z,1.23
2023-04-11T05:02:21.920Z,1.30
2023-04-11T05:05:14.307Z,1.10
2023-04-11T05:08:02.262Z,1.20
2023-04-11T05:10:54.472Z,1.58
2023-04-11T05:13:42.073Z,1.50
2023-04-11T05:16:29.463Z,1.80
2023-04-11T05:19:18.132Z,1.52
2023-04-11T05:22:09.723Z,2.03
2023-04-11T05:24:59.915Z,1.60
2023-04-11T05:27:46.966Z,1.63
2023-04-11T05:30:35.071Z,1.80
2023-04-11T05:33:25.014Z,1.70
2023-04-11T05:36:14.676Z,1.55
2023-04-11T05:39:04.251Z,1.33
2023-04-11T05:41:51.471Z,1.50
2023-04-11T05:44:40.551Z,1.30
2023-04-11T05:47:28.303Z,1.25
2023-04-11T05:50:16.660Z,1.30
2023-04-11T05:53:04.964Z,1.17
2023-04-11T05:55:54.110Z,1.13
2023-04-11T05:58:45.191Z,1.35
2023-04-11T06:01:32.735Z,1.20
2023-04-11T06:04:22.759Z,1.17
2023-04-11T06:07:11.274Z,1.73
2023-04-11T06:09:59.128Z,1.30
2023-04-11T06:12:51.073Z,1.27
2023-04-11T06:15:39.727Z,1.35
2023-04-11T06:18:27.774Z,1.30
2023-04-11T06:21:15.675Z,1.45
2023-04-11T06:24:07.094Z,1.33
2023-04-11T06:26:54.858Z,1.30
2023-04-11T06:29:44.221Z,1.23
2023-04-11T06:32:38.329Z,1.25
2023-04-11T06:35:29.073Z,1.60
2023-04-11T06:38:20.926Z,1.30
2023-04-11T06:41:10.931Z,1.60
2023-04-11T06:44:01.507Z,1.35
2023-04-11T06:46:50.805Z,1.83
2023-04-11T06:49:38.466Z,1.80
2023-04-11T06:52:28.718Z,1.63
2023-04-11T06:55:21.203Z,1.38
2023-04-11T06:58:11.440Z,1.27
2023-04-11T07:01:05.882Z,1.58
2023-04-11T07:04:01.554Z,1.65
2023-04-11T07:06:51.268Z,1.83
2023-04-11T07:09:38.498Z,1.50
2023-04-11T07:12:25.674Z,1.40
2023-04-11T07:15:12.989Z,1.35
2023-04-11T07:17:59.967Z,1.55
2023-04-11T07:20:48.717Z,1.50
2023-04-11T07:23:35.963Z,1.40
2023-04-11T07:26:23.762Z,1.60
2023-04-11T07:29:13.887Z,1.00
2023-04-11T07:32:02.584Z,1.30
2023-04-11T07:34:52.791Z,1.20
2023-04-11T07:37:42.440Z,1.00
2023-04-11T07:40:29.500Z,1.08
2023-04-11T07:43:16.577Z,0.95
2023-04-11T07:46:03.614Z,1.20
2023-04-11T07:48:59.041Z,1.08
2023-04-11T07:51:51.734Z,0.88
2023-04-11T07:54:46.868Z,1.13
2023-04-11T07:57:39.923Z,1.00
2023-04-11T08:00:32.956Z,1.02
2023-04-11T08:03:21.212Z,1.00
2023-04-11T08:06:14.623Z,1.00
2023-04-11T08:09:02.207Z,1.00
2023-04-11T08:11:51.331Z,1.13
2023-04-11T08:14:39.019Z,1.08
2023-04-11T08:17:38.408Z,0.82
2023-04-11T08:20:27.554Z,0.70
2023-04-11T08:23:20.972Z,0.80
2023-04-11T08:26:13.168Z,0.65
2023-04-11T08:29:11.507Z,0.73
2023-04-11T08:31:58.565Z,1.27
2023-04-11T08:34:45.454Z,0.70
2023-04-11T08:37:32.833Z,0.90
2023-04-11T08:40:19.684Z,0.85
2023-04-11T08:43:12.439Z,1.00
2023-04-11T08:46:02.709Z,0.63
2023-04-11T08:48:49.754Z,0.45
2023-04-11T08:51:36.986Z,0.60
2023-04-11T08:54:23.868Z,0.65
2023-04-11T08:57:28.542Z,0.63
2023-04-11T09:00:19.467Z,0.50
2023-04-11T09:03:19.032Z,0.90
2023-04-11T09:06:11.797Z,0.60
2023-04-11T09:09:00.666Z,0.47
2023-04-11T09:11:59.061Z,0.70
2023-04-11T09:14:52.267Z,0.60
2023-04-11T09:17:49.922Z,1.00
2023-04-11T09:20:38.912Z,1.02
2023-04-11T09:23:27.774Z,1.58
2023-04-11T09:26:28.841Z,1.67
2023-04-11T09:29:44.431Z,5.65
2023-04-11T09:32:34.939Z,1.40
2023-04-11T09:35:28.784Z,1.35
2023-04-11T09:38:31.149Z,0.98
2023-04-11T09:41:32.590Z,0.82
2023-04-11T09:44:36.009Z,0.90
2023-04-11T09:47:33.172Z,0.90
2023-04-11T09:50:21.700Z,0.90
2023-04-11T09:53:12.688Z,1.05
2023-04-11T09:56:06.547Z,0.60
2023-04-11T09:58:57.018Z,0.95
2023-04-11T10:01:45.773Z,0.75
2023-04-11T10:04:50.508Z,1.25
2023-04-11T10:07:50.857Z,1.00
2023-04-11T10:10:39.422Z,1.02
2023-04-11T10:13:43.968Z,1.50
2023-04-11T10:16:34.710Z,1.25
2023-04-11T10:19:29.613Z,0.80
2023-04-11T10:22:47.472Z,1.02
2023-04-11T10:25:38.029Z,1.02
2023-04-11T10:28:37.771Z,1.13
2023-04-11T10:31:29.737Z,1.10
2023-04-11T10:34:20.894Z,1.00
2023-04-11T10:37:11.265Z,0.90
2023-04-11T10:40:12.613Z,1.58
2023-04-11T10:43:22.310Z,2.15
2023-04-11T10:46:35.050Z,2.65
2023-04-11T10:49:41.999Z,1.05
2023-04-11T10:52:39.189Z,0.85
2023-04-11T10:55:30.556Z,1.30
2023-04-11T10:58:24.051Z,0.80
2023-04-11T11:01:31.572Z,2.05
2023-04-11T11:04:37.413Z,1.00
2023-04-11T11:07:33.754Z,1.38
2023-04-11T11:10:37.007Z,1.45
2023-04-11T11:13:24.790Z,0.80
2023-04-11T11:16:18.904Z,1.08
2023-04-11T11:19:07.957Z,0.98
2023-04-11T11:21:59.959Z,0.88
2023-04-11T11:24:52.746Z,1.00
2023-04-11T11:27:45.969Z,0.90
2023-04-11T11:30:34.250Z,1.20
2023-04-11T11:33:23.635Z,1.02
2023-04-11T11:36:12.519Z,0.90
2023-04-11T11:39:04.564Z,1.00
2023-04-11T11:42:00.001Z,1.10
2023-04-11T11:44:47.832Z,1.23
2023-04-11T11:47:49.993Z,1.02
2023-04-11T11:50:39.051Z,1.10
2023-04-11T11:53:27.387Z,1.25
2023-04-11T11:56:17.877Z,1.10
2023-04-11T11:59:10.753Z,1.63
2023-04-11T12:01:59.130Z,0.90
2023-04-11T12:04:46.884Z,1.17
2023-04-11T12:07:43.040Z,1.13
2023-04-11T12:10:40.160Z,1.20
2023-04-11T12:13:33.944Z,1.02
2023-04-11T12:16:27.242Z,1.53
2023-04-11T12:22:04.952Z,1.10
2023-04-11T12:24:54.205Z,2.08
2023-04-11T12:27:43.206Z,1.08
2023-04-11T12:30:34.425Z,1.20
2023-04-11T12:33:32.711Z,1.25
2023-04-11T12:36:24.329Z,1.40
2023-04-11T12:39:12.333Z,1.20
2023-04-11T12:41:59.594Z,0.95
2023-04-11T12:44:57.595Z,1.67
2023-04-11T12:47:48.391Z,1.40
2023-04-11T12:50:36.402Z,1.40
2023-04-11T12:53:25.054Z,1.48
2023-04-11T12:56:21.196Z,1.60
2023-04-11T12:59:14.324Z,1.20
2023-04-11T13:02:03.302Z,1.10
2023-04-11T13:04:56.373Z,1.55
2023-04-11T13:07:45.532Z,1.25
2023-04-11T13:10:38.689Z,1.13
2023-04-11T13:13:26.715Z,1.60
2023-04-11T13:16:14.161Z,1.25
2023-04-11T13:19:06.698Z,1.48
2023-04-11T13:22:00.247Z,1.20
2023-04-11T13:27:35.912Z,1.20
2023-04-11T13:30:28.348Z,1.20
2023-04-11T13:33:18.720Z,1.02
2023-04-11T13:36:08.485Z,1.38
2023-04-11T13:39:02.777Z,1.05
2023-04-11T13:41:54.465Z,0.98
2023-04-11T13:44:47.938Z,1.10
2023-04-11T13:47:39.192Z,1.27
2023-04-11T13:50:27.365Z,1.17
2023-04-11T13:53:14.952Z,1.20
2023-04-11T13:56:06.888Z,1.15
2023-04-11T13:59:01.883Z,1.38
2023-04-11T14:01:58.065Z,1.50
2023-04-11T14:04:45.853Z,1.33
2023-04-11T14:07:38.337Z,1.50
2023-04-11T14:10:28.252Z,1.20
2023-04-11T14:13:20.091Z,1.00
2023-04-11T14:16:09.538Z,1.02
2023-04-11T14:18:57.700Z,1.33
2023-04-11T14:21:46.117Z,1.13
2023-04-11T14:24:36.566Z,0.88
2023-04-11T14:27:29.900Z,0.98
2023-04-11T14:30:26.275Z,1.30
2023-04-11T14:33:19.708Z,1.20
2023-04-11T14:36:08.590Z,0.87
2023-04-11T14:38:56.355Z,0.90
2023-04-11T14:41:48.767Z,1.00
2023-04-11T14:44:40.733Z,1.20
2023-04-11T14:47:36.019Z,1.52
2023-04-11T14:50:27.809Z,1.08
2023-04-11T14:53:18.525Z,0.93
2023-04-11T14:56:12.611Z,1.15
2023-04-11T14:59:03.275Z,0.93
2023-04-11T15:01:51.820Z,1.00
2023-04-11T15:04:46.837Z,0.98
2023-04-11T15:07:39.136Z,1.00
2023-04-11T15:10:28.543Z,0.90
2023-04-11T15:13:20.490Z,1.10
2023-04-11T15:16:16.622Z,0.90
2023-04-11T15:19:09.280Z,0.98
2023-04-11T15:22:01.024Z,0.95
2023-04-11T15:24:51.352Z,1.30
2023-04-11T15:27:39.371Z,1.33
2023-04-11T15:30:27.379Z,1.63
2023-04-11T15:33:17.530Z,1.25
2023-04-11T15:36:07.775Z,1.20
2023-04-11T15:39:14.995Z,1.25
2023-04-11T15:42:04.389Z,1.20
2023-04-11T15:44:51.690Z,1.10
2023-04-11T15:47:39.814Z,1.20
2023-04-11T15:50:29.617Z,1.20
2023-04-11T15:53:17.285Z,1.23
2023-04-11T15:56:08.506Z,0.85
2023-04-11T15:58:56.032Z,1.17
2023-04-11T16:01:43.862Z,0.95
2023-04-11T16:04:32.280Z,1.08
2023-04-11T16:07:20.483Z,0.90
2023-04-11T16:10:09.209Z,0.93
2023-04-11T16:12:58.575Z,1.17
2023-04-11T16:15:48.684Z,1.00
2023-04-11T16:18:36.588Z,0.90
2023-04-11T16:21:25.076Z,1.20
2023-04-11T16:24:13.157Z,0.82
2023-04-11T16:27:01.724Z,1.10
2023-04-11T16:29:51.633Z,0.90
2023-04-11T16:32:38.856Z,1.20
2023-04-11T16:35:26.412Z,1.05
2023-04-11T16:38:13.910Z,1.05
2023-04-11T16:41:02.201Z,1.02
2023-04-11T16:43:49.916Z,1.13
2023-04-11T16:46:39.489Z,1.10
2023-04-11T16:49:27.499Z,1.40
2023-04-11T16:52:14.710Z,1.30
2023-04-11T16:55:03.372Z,1.20
2023-04-11T16:57:50.557Z,1.40
2023-04-11T17:00:38.177Z,1.30
2023-04-11T17:03:26.662Z,1.13
2023-04-11T17:06:14.912Z,1.30
2023-04-11T17:09:01.989Z,1.20
2023-04-11T17:11:49.542Z,1.00
2023-04-11T17:14:37.688Z,1.10
2023-04-11T17:17:24.962Z,1.23
2023-04-11T17:20:14.852Z,1.13
2023-04-11T17:23:01.888Z,1.40
2023-04-11T17:25:52.235Z,1.30
2023-04-11T17:28:40.006Z,1.10
2023-04-11T17:31:29.307Z,1.58
2023-04-11T17:34:16.816Z,1.30
2023-04-11T17:37:06.567Z,1.65
2023-04-11T17:39:53.518Z,1.20
2023-04-11T17:42:41.379Z,1.02
2023-04-11T17:45:28.265Z,1.70
2023-04-11T17:48:15.555Z,1.20
2023-04-11T17:51:05.745Z,1.40
2023-04-11T17:53:54.557Z,1.38
2023-04-11T17:56:41.720Z,1.38
2023-04-11T17:59:29.660Z,1.30
2023-04-11T18:02:17.394Z,1.38
2023-04-11T18:05:13.067Z,1.60
2023-04-11T18:08:08.016Z,2.47
2023-04-11T18:10:56.677Z,1.40
2023-04-11T18:13:44.655Z,1.45
2023-04-11T18:16:31.912Z,1.48
2023-04-11T18:19:19.085Z,1.35
2023-04-11T18:22:06.525Z,1.70
2023-04-11T18:24:55.212Z,1.85
2023-04-11T18:27:43.602Z,1.80
2023-04-11T18:30:30.942Z,1.58
2023-04-11T18:33:19.631Z,1.35
2023-04-11T18:36:08.049Z,1.33
2023-04-11T18:38:56.407Z,1.60
2023-04-11T18:41:44.780Z,1.70
2023-04-11T18:44:36.739Z,1.45
2023-04-11T18:47:23.643Z,1.63
2023-04-11T18:50:10.987Z,1.73
2023-04-11T18:53:04.016Z,1.60
2023-04-11T18:55:52.928Z,1.80
2023-04-11T18:58:45.513Z,1.65
2023-04-11T19:01:35.470Z,1.70
2023-04-11T19:04:24.627Z,1.67
2023-04-11T19:07:12.622Z,1.80
2023-04-11T19:09:59.601Z,2.10
2023-04-11T19:12:46.436Z,2.55
2023-04-11T19:15:33.545Z,2.20
2023-04-11T19:18:22.007Z,1.48
2023-04-11T19:21:08.999Z,2.20
2023-04-11T19:23:57.964Z,1.80
2023-04-11T19:26:45.473Z,1.80
2023-04-11T19:29:32.483Z,1.75
2023-04-11T19:32:19.272Z,1.80
2023-04-11T19:35:09.299Z,1.95
2023-04-11T19:37:56.368Z,2.20
2023-04-11T19:40:43.369Z,1.83
2023-04-11T19:43:30.257Z,2.17
2023-04-11T19:46:18.350Z,2.13
2023-04-11T19:49:05.568Z,1.98
2023-04-11T19:51:54.136Z,1.80
2023-04-11T19:54:41.557Z,1.65
2023-04-11T19:57:29.037Z,2.22
2023-04-11T20:00:17.730Z,1.80
2023-04-11T20:03:05.961Z,1.75
2023-04-11T20:05:53.500Z,2.00
2023-04-11T20:08:41.997Z,2.08
2023-04-11T20:11:29.376Z,2.20
2023-04-11T20:14:16.458Z,2.20
2023-04-11T20:17:03.324Z,2.30
2023-04-11T20:19:54.894Z,1.63
2023-04-11T20:22:44.918Z,1.85
2023-04-11T20:25:34.119Z,1.92
2023-04-11T20:28:21.725Z,1.80
2023-04-11T20:31:08.802Z,1.73
2023-04-11T20:33:56.069Z,1.90
2023-04-11T20:36:43.764Z,1.90
2023-04-11T20:39:31.018Z,1.92
2023-04-11T20:42:20.856Z,2.15
2023-04-11T20:45:10.435Z,1.70
2023-04-11T20:47:59.758Z,2.50
2023-04-11T20:50:47.290Z,2.67
2023-04-11T20:53:35.379Z,2.22
2023-04-11T20:56:23.978Z,3.03
2023-04-11T20:59:13.099Z,2.20
2023-04-11T21:02:00.020Z,3.47
2023-04-11T21:04:48.709Z,2.40
2023-04-11T21:07:37.154Z,2.72
2023-04-11T21:10:24.587Z,2.83
2023-04-11T21:13:11.718Z,2.78
2023-04-11T21:16:00.488Z,2.83
2023-04-11T21:18:47.448Z,3.00
2023-04-11T21:21:34.969Z,2.88
2023-04-11T21:24:21.796Z,2.45
2023-04-11T21:27:08.811Z,3.00
2023-04-11T21:29:55.941Z,2.88
2023-04-11T21:32:44.195Z,2.85
2023-04-11T21:35:31.837Z,2.75
2023-04-11T21:38:18.661Z,2.45
2023-04-11T21:41:05.701Z,3.22
2023-04-11T21:43:52.522Z,2.20
2023-04-11T21:46:39.345Z,2.10
2023-04-11T21:49:27.916Z,2.95
2023-04-11T21:52:15.543Z,3.20
2023-04-11T21:55:02.693Z,2.65
2023-04-11T21:57:49.686Z,2.67
2023-04-11T22:00:36.613Z,2.55
2023-04-11T22:03:24.190Z,2.30
2023-04-11T22:06:13.218Z,2.47
2023-04-11T22:09:01.466Z,2.67
2023-04-11T22:11:48.629Z,2.60
2023-04-11T22:14:38.376Z,2.53
2023-04-11T22:17:25.408Z,2.55
2023-04-11T22:20:13.372Z,2.25
2023-04-11T22:23:02.315Z,2.78
2023-04-11T22:25:58.161Z,2.47
2023-04-11T22:28:45.778Z,2.83
2023-04-11T22:31:35.164Z,2.20
2023-04-11T22:34:21.936Z,2.88
2023-04-11T22:37:09.243Z,2.83
2023-04-11T22:39:57.727Z,2.63
2023-04-11T22:42:47.027Z,2.50
2023-04-11T22:45:36.197Z,2.60
2023-04-11T22:48:30.217Z,3.38
2023-04-11T22:51:17.246Z,2.95
2023-04-11T22:54:04.289Z,2.78
2023-04-11T22:56:56.638Z,3.15
2023-04-11T22:59:43.774Z,2.60
2023-04-11T23:02:31.973Z,2.80
2023-04-11T23:05:20.931Z,2.40
2023-04-11T23:08:07.988Z,2.92
2023-04-11T23:10:55.117Z,2.83
2023-04-11T23:13:43.372Z,2.83
2023-04-11T23:16:30.372Z,2.40
2023-04-11T23:19:18.970Z,2.38
2023-04-11T23:22:06.473Z,2.35
2023-04-11T23:24:53.881Z,2.22
2023-04-11T23:27:40.608Z,2.42
2023-04-11T23:30:30.066Z,2.28
2023-04-11T23:33:17.578Z,2.42
2023-04-11T23:36:05.040Z,2.30
2023-04-11T23:38:52.077Z,3.05
2023-04-11T23:41:39.214Z,2.85
2023-04-11T23:44:26.385Z,3.30
2023-04-11T23:47:14.704Z,3.15
2023-04-11T23:50:02.778Z,2.80
2023-04-11T23:52:50.044Z,2.30
2023-04-11T23:55:37.348Z,2.92
2023-04-11T23:58:24.443Z,2.65
